Slovan, Pennsylvania
Current Conditions -  °F | °C
As of 10:51 AM on Wednesday 22 Oct 2014 (Local Time) from KPIT Reporting Station
Overcast Overcast  
Wind Chill: 42°   Ceiling: 1400
Heat Index: 48°   Visibility: 10mi
Dew Point: 43°   Wind: 14mph
Humidity: 83%   Direction: 350°N
Pressure: 30.16"   Gusts: NA
Location:  40.36°N, 80.39°W
Report Text: KPIT 221451Z 35012KT 10SM OVC014 09/06 A3016 RMK AO2 SLP226 T00890061 51015
Loading
Personal Weather Stations






























Interactive Weather Map
Tropical Storm Tracking
New forecast layout! Learn more

10-Day Weather Forecast

Advertisements
Track Severe Weather on mobile